createdAt,value
2023-02-22T00:01:00.399Z,538.6
2023-02-22T00:02:02.659Z,538.3
2023-02-22T00:03:04.701Z,538
2023-02-22T00:04:06.731Z,537.8
2023-02-22T00:05:08.544Z,537.8
2023-02-22T00:06:10.403Z,538
2023-02-22T00:07:12.248Z,537.9
2023-02-22T00:08:14.210Z,538.1
2023-02-22T00:09:16.071Z,538.4
2023-02-22T00:10:17.823Z,537.9
2023-02-22T00:11:19.919Z,537.6
2023-02-22T00:12:21.807Z,538
2023-02-22T00:13:23.661Z,538.4
2023-02-22T00:14:25.606Z,538.1
2023-02-22T00:15:27.465Z,538.1
2023-02-22T00:16:29.514Z,538.3
2023-02-22T00:17:31.294Z,538.4
2023-02-22T00:18:33.108Z,538.2
2023-02-22T00:19:35.064Z,538.4
2023-02-22T00:20:36.938Z,538.3
2023-02-22T00:21:38.995Z,538
2023-02-22T00:22:40.872Z,538.1
2023-02-22T00:23:42.630Z,538.1
2023-02-22T00:24:44.440Z,538.3
2023-02-22T00:25:46.163Z,538.3
2023-02-22T00:26:48.028Z,538.3
2023-02-22T00:27:49.714Z,538.2
2023-02-22T00:28:51.630Z,538.5
2023-02-22T00:29:53.478Z,538.6
2023-02-22T00:30:55.730Z,538.4
2023-02-22T00:31:58.292Z,538.7
2023-02-22T00:33:00.232Z,538.8
2023-02-22T00:34:02.001Z,538.9
2023-02-22T00:35:03.928Z,539
2023-02-22T00:36:05.802Z,539.3
2023-02-22T00:37:07.643Z,538.9
2023-02-22T00:38:09.490Z,539.2
2023-02-22T00:39:11.249Z,539.7
2023-02-22T00:40:13.202Z,539.5
2023-02-22T00:41:16.690Z,539.4
2023-02-22T00:42:18.645Z,540.1
2023-02-22T00:43:20.400Z,540.1
2023-02-22T00:44:22.153Z,539.8
2023-02-22T00:45:23.974Z,539.8
2023-02-22T00:46:25.720Z,540
2023-02-22T00:47:27.563Z,540.3
2023-02-22T00:48:29.370Z,540.4
2023-02-22T00:49:31.244Z,540.7
2023-02-22T00:50:33.083Z,540.8
2023-02-22T00:51:34.986Z,540.9
2023-02-22T00:52:36.820Z,540.9
2023-02-22T00:53:38.670Z,540.8
2023-02-22T00:54:40.520Z,541.1
2023-02-22T00:55:42.373Z,541.1
2023-02-22T00:56:44.144Z,541.2
2023-02-22T00:57:45.984Z,540.9
2023-02-22T00:58:47.742Z,541.2
2023-02-22T00:59:49.560Z,541.1
2023-02-22T01:00:51.505Z,541.5
2023-02-22T01:01:53.573Z,541.2
2023-02-22T01:02:55.700Z,541.6
2023-02-22T01:03:57.779Z,541.3
2023-02-22T01:04:59.838Z,541.6
2023-02-22T01:06:01.756Z,541.5
2023-02-22T01:07:03.571Z,541.5
2023-02-22T01:08:05.387Z,542.1
2023-02-22T01:09:07.444Z,542.2
2023-02-22T01:10:09.335Z,542
2023-02-22T01:11:11.044Z,542
2023-02-22T01:12:12.890Z,542.4
2023-02-22T01:13:14.760Z,542.5
2023-02-22T01:14:16.592Z,542.3
2023-02-22T01:15:18.431Z,542.5
2023-02-22T01:16:20.197Z,542.7
2023-02-22T01:17:22.244Z,542.9
2023-02-22T01:18:24.082Z,542.9
2023-02-22T01:19:26.046Z,542.9
2023-02-22T01:20:27.896Z,543
2023-02-22T01:21:29.576Z,542.8
2023-02-22T01:22:31.276Z,542.9
2023-02-22T01:23:33.144Z,542.8
2023-02-22T01:24:35.091Z,542.8
2023-02-22T01:25:37.044Z,542.9
2023-02-22T01:26:38.894Z,543
2023-02-22T01:27:40.701Z,543
2023-02-22T01:28:42.604Z,543.1
2023-02-22T01:29:44.433Z,543.2
2023-02-22T01:30:46.799Z,543.1
2023-02-22T01:31:48.857Z,543.1
2023-02-22T01:32:50.810Z,543.3
2023-02-22T01:33:52.658Z,543.1
2023-02-22T01:34:54.523Z,543.6
2023-02-22T01:35:56.544Z,543.5
2023-02-22T01:36:58.236Z,543.3
2023-02-22T01:38:00.150Z,543.5
2023-02-22T01:39:02.010Z,543.4
2023-02-22T01:40:03.759Z,543.5
2023-02-22T01:41:05.521Z,543.5
2023-02-22T01:42:07.272Z,543.8
2023-02-22T01:43:09.195Z,543.5
2023-02-22T01:44:11.182Z,543.6
2023-02-22T01:45:13.010Z,543.5
2023-02-22T01:46:18.043Z,543.5
2023-02-22T01:47:19.873Z,543.6
2023-02-22T01:48:21.731Z,543.3
2023-02-22T01:49:23.578Z,543.5
2023-02-22T01:50:25.332Z,543.1
2023-02-22T01:51:27.178Z,543
2023-02-22T01:52:28.946Z,543
2023-02-22T01:53:30.769Z,542.6
2023-02-22T01:54:32.626Z,542.7
2023-02-22T01:55:34.463Z,542.8
2023-02-22T01:56:36.415Z,542.9
2023-02-22T01:57:38.275Z,542.6
2023-02-22T01:58:40.236Z,542.6
2023-02-22T01:59:42.110Z,543.1
2023-02-22T02:00:43.851Z,543.2
2023-02-22T02:01:45.683Z,543.2
2023-02-22T02:02:47.518Z,543.5
2023-02-22T02:03:49.733Z,543.4
2023-02-22T02:04:51.679Z,543.5
2023-02-22T02:05:53.486Z,543.5
2023-02-22T02:06:55.447Z,543.5
2023-02-22T02:07:57.185Z,543.6
2023-02-22T02:08:59.136Z,543.4
2023-02-22T02:10:00.996Z,543.6
2023-02-22T02:11:02.839Z,543.4
2023-02-22T02:12:04.620Z,543.2
2023-02-22T02:13:06.417Z,543
2023-02-22T02:14:08.415Z,543
2023-02-22T02:15:10.260Z,542.7
2023-02-22T02:16:12.055Z,542.6
2023-02-22T02:17:13.933Z,543.1
2023-02-22T02:18:15.781Z,542.9
2023-02-22T02:19:17.679Z,542.3
2023-02-22T02:20:19.468Z,542.9
2023-02-22T02:21:21.334Z,542.6
2023-02-22T02:22:23.192Z,542.5
2023-02-22T02:23:24.863Z,542.6
2023-02-22T02:24:26.789Z,543
2023-02-22T02:25:28.631Z,543
2023-02-22T02:26:30.490Z,542.8
2023-02-22T02:27:32.336Z,542.7
2023-02-22T02:28:34.191Z,542.6
2023-02-22T02:29:36.037Z,542.6
2023-02-22T02:30:38.427Z,542.7
2023-02-22T02:31:40.949Z,542
2023-02-22T02:32:43.295Z,542.1
2023-02-22T02:33:45.117Z,541.6
2023-02-22T02:34:46.932Z,541.9
2023-02-22T02:35:48.873Z,541.6
2023-02-22T02:36:50.691Z,541.6
2023-02-22T02:37:52.477Z,541.5
2023-02-22T02:38:54.674Z,541.4
2023-02-22T02:39:56.697Z,541.5
2023-02-22T02:40:58.531Z,541.3
2023-02-22T02:42:00.484Z,541.2
2023-02-22T02:43:02.343Z,541.5
2023-02-22T02:44:04.182Z,541.1
2023-02-22T02:45:06.146Z,540.8
2023-02-22T02:46:08.224Z,540.9
2023-02-22T02:47:10.309Z,540.8
2023-02-22T02:48:12.299Z,540.8
2023-02-22T02:49:14.053Z,540.8
2023-02-22T02:50:15.900Z,540.7
2023-02-22T02:51:18.891Z,540.9
2023-02-22T02:52:20.937Z,540.6
2023-02-22T02:53:22.790Z,540.7
2023-02-22T02:54:24.635Z,540.5
2023-02-22T02:55:26.462Z,540.6
2023-02-22T02:56:28.443Z,540.6
2023-02-22T02:57:30.221Z,540.6
2023-02-22T02:58:32.031Z,540.4
2023-02-22T02:59:33.886Z,540.3
2023-02-22T03:00:35.732Z,540.3
2023-02-22T03:01:38.042Z,540.3
2023-02-22T03:02:39.904Z,540.4
2023-02-22T03:03:41.828Z,540.4
2023-02-22T03:04:43.651Z,540.8
2023-02-22T03:05:45.460Z,540.4
2023-02-22T03:06:47.307Z,540.7
2023-02-22T03:07:49.191Z,540.6
2023-02-22T03:08:51.246Z,540.7
2023-02-22T03:09:53.024Z,540.7
2023-02-22T03:10:54.747Z,540.7
2023-02-22T03:11:56.590Z,540.6
2023-02-22T03:12:58.341Z,540.9
2023-02-22T03:14:00.198Z,540.5
2023-02-22T03:15:02.044Z,540.6
2023-02-22T03:16:04.126Z,540.7
2023-02-22T03:17:06.093Z,540.9
2023-02-22T03:18:07.835Z,540.8
2023-02-22T03:19:09.545Z,541.3
2023-02-22T03:20:11.372Z,541.1
2023-02-22T03:21:13.347Z,541.1
2023-02-22T03:22:15.300Z,540.8
2023-02-22T03:23:17.041Z,541
2023-02-22T03:24:18.766Z,541.2
2023-02-22T03:25:20.566Z,540.9
2023-02-22T03:26:22.290Z,540.7
2023-02-22T03:27:24.253Z,541.2
2023-02-22T03:28:25.983Z,540.7
2023-02-22T03:29:27.870Z,541
2023-02-22T03:30:29.819Z,540.8
2023-02-22T03:31:32.112Z,540.8
2023-02-22T03:32:34.027Z,540.7
2023-02-22T03:33:35.742Z,540.8
2023-02-22T03:34:37.526Z,540.3
2023-02-22T03:35:39.452Z,540.5
2023-02-22T03:36:41.280Z,540.4
2023-02-22T03:37:43.268Z,540.4
2023-02-22T03:38:44.907Z,540.4
2023-02-22T03:39:46.639Z,540.5
2023-02-22T03:40:48.469Z,540.4
2023-02-22T03:41:50.344Z,540.6
2023-02-22T03:42:52.203Z,540.9
2023-02-22T03:43:54.042Z,540.7
2023-02-22T03:44:55.998Z,540.5
2023-02-22T03:45:57.955Z,540.7
2023-02-22T03:46:59.797Z,540.9
2023-02-22T03:48:01.748Z,540.9
2023-02-22T03:49:03.599Z,541.1
2023-02-22T03:50:05.267Z,540.7
2023-02-22T03:51:07.111Z,540.6
2023-02-22T03:52:08.836Z,540.7
2023-02-22T03:53:10.799Z,540.9
2023-02-22T03:54:12.643Z,540.7
2023-02-22T03:55:14.295Z,540.6
2023-02-22T03:56:16.147Z,540.9
2023-02-22T03:57:18.010Z,540.2
2023-02-22T03:58:19.885Z,540.3
2023-02-22T03:59:21.593Z,540.7
2023-02-22T04:00:23.442Z,541
2023-02-22T04:01:25.294Z,540.8
2023-02-22T04:02:27.241Z,540.9
2023-02-22T04:03:29.273Z,541.2
2023-02-22T04:04:31.275Z,541.1
2023-02-22T04:05:32.991Z,541.4
2023-02-22T04:06:34.744Z,541.2
2023-02-22T04:07:36.498Z,541.1
2023-02-22T04:08:38.337Z,541.1
2023-02-22T04:09:40.215Z,541.1
2023-02-22T04:10:42.034Z,541.2
2023-02-22T04:11:43.993Z,541.2
2023-02-22T04:12:45.763Z,541.2
2023-02-22T04:13:47.591Z,541.2
2023-02-22T04:14:49.435Z,540.9
2023-02-22T04:15:51.391Z,541
2023-02-22T04:16:53.233Z,541.2
2023-02-22T04:17:55.203Z,540.6
2023-02-22T04:18:57.072Z,540.6
2023-02-22T04:19:58.897Z,540.4
2023-02-22T04:21:00.673Z,540.4
2023-02-22T04:22:02.489Z,540.2
2023-02-22T04:23:04.337Z,540.5
2023-02-22T04:24:06.195Z,540.3
2023-02-22T04:25:07.970Z,540.4
2023-02-22T04:26:09.795Z,540.2
2023-02-22T04:27:11.646Z,540.1
2023-02-22T04:28:13.591Z,540.2
2023-02-22T04:29:15.403Z,540
2023-02-22T04:30:17.390Z,539.8
2023-02-22T04:31:20.755Z,539.6
2023-02-22T04:32:23.092Z,539.8
2023-02-22T04:33:25.060Z,539.9
2023-02-22T04:34:27.063Z,539.5
2023-02-22T04:35:28.784Z,539.8
2023-02-22T04:36:30.634Z,539.9
2023-02-22T04:37:32.381Z,540.2
2023-02-22T04:38:34.233Z,539.8
2023-02-22T04:39:36.435Z,539.6
2023-02-22T04:40:38.281Z,539.8
2023-02-22T04:41:40.091Z,539.5
2023-02-22T04:42:41.839Z,538.8
2023-02-22T04:43:43.685Z,539
2023-02-22T04:44:45.653Z,539.4
2023-02-22T04:45:47.495Z,538.8
2023-02-22T04:46:49.422Z,539.1
2023-02-22T04:47:51.304Z,539.2
2023-02-22T04:48:53.057Z,539.4
2023-02-22T04:49:55.024Z,539.1
2023-02-22T04:50:56.843Z,539.1
2023-02-22T04:51:58.798Z,539.6
2023-02-22T04:53:00.520Z,539.4
2023-02-22T04:54:02.397Z,539.7
2023-02-22T04:55:04.242Z,539.8
2023-02-22T04:56:05.988Z,539.6
2023-02-22T04:57:08.043Z,539.9
2023-02-22T04:58:10.141Z,539.8
2023-02-22T04:59:11.850Z,539.7
2023-02-22T05:00:13.699Z,539.7
2023-02-22T05:01:17.214Z,539.3
2023-02-22T05:02:19.348Z,539.5
2023-02-22T05:03:21.305Z,539.5
2023-02-22T05:04:23.384Z,539.5
2023-02-22T05:05:25.453Z,539.4
2023-02-22T05:06:27.354Z,539.4
2023-02-22T05:07:29.207Z,539.6
2023-02-22T05:08:30.986Z,539.6
2023-02-22T05:09:32.802Z,539.4
2023-02-22T05:10:34.651Z,539.3
2023-02-22T05:11:36.503Z,539.1
2023-02-22T05:12:38.477Z,538.9
2023-02-22T05:13:40.301Z,539
2023-02-22T05:14:42.156Z,538.9
2023-02-22T05:15:44.247Z,538.9
2023-02-22T05:16:45.970Z,538.6
2023-02-22T05:17:48.326Z,538.9
2023-02-22T05:18:50.174Z,538.7
2023-02-22T05:19:51.956Z,539
2023-02-22T05:20:53.787Z,539.2
2023-02-22T05:21:55.722Z,539.3
2023-02-22T05:22:57.414Z,539.2
2023-02-22T05:23:59.211Z,539.4
2023-02-22T05:25:01.076Z,538.9
2023-02-22T05:26:02.824Z,538.5
2023-02-22T05:27:04.668Z,538
2023-02-22T05:28:06.516Z,537.6
2023-02-22T05:29:08.489Z,537.2
2023-02-22T05:30:10.370Z,537.1
2023-02-22T05:31:12.460Z,537
2023-02-22T05:32:17.539Z,537
2023-02-22T05:33:19.454Z,536.9
2023-02-22T05:34:21.396Z,536.8
2023-02-22T05:35:23.268Z,536.7
2023-02-22T05:36:25.245Z,536.8
2023-02-22T05:37:27.048Z,536.9
2023-02-22T05:38:28.917Z,536.9
2023-02-22T05:39:30.985Z,536.4
2023-02-22T05:40:32.837Z,536.5
2023-02-22T05:41:34.775Z,536.1
2023-02-22T05:42:36.503Z,536.4
2023-02-22T05:43:38.352Z,535.9
2023-02-22T05:44:40.215Z,535.6
2023-02-22T05:45:42.056Z,535.5
2023-02-22T05:46:44.149Z,535.6
2023-02-22T05:47:45.943Z,535.5
2023-02-22T05:48:47.788Z,535.2
2023-02-22T05:49:49.559Z,535.5
2023-02-22T05:50:51.419Z,535.1
2023-02-22T05:51:53.369Z,535.2
2023-02-22T05:52:55.321Z,535.6
2023-02-22T05:53:57.178Z,535.4
2023-02-22T05:54:59.036Z,535.3
2023-02-22T05:56:00.868Z,535.1
2023-02-22T05:57:02.766Z,534.8
2023-02-22T05:58:04.576Z,535
2023-02-22T05:59:09.196Z,534.9
2023-02-22T06:00:11.048Z,534.8
2023-02-22T06:01:12.905Z,534.6
2023-02-22T06:02:14.809Z,534.8
2023-02-22T06:03:16.572Z,534.7
2023-02-22T06:04:18.355Z,534.4
2023-02-22T06:05:20.411Z,534.7
2023-02-22T06:06:23.542Z,534.4
2023-02-22T06:07:25.647Z,534.3
2023-02-22T06:08:27.371Z,534.3
2023-02-22T06:09:29.233Z,534.5
2023-02-22T06:10:31.075Z,534.5
2023-02-22T06:11:32.921Z,534.6
2023-02-22T06:12:34.873Z,535.1
2023-02-22T06:13:36.727Z,535.2
2023-02-22T06:14:38.492Z,535.2
2023-02-22T06:15:40.317Z,535.4
2023-02-22T06:16:42.264Z,535.2
2023-02-22T06:17:43.984Z,535
2023-02-22T06:18:45.867Z,535.2
2023-02-22T06:19:47.707Z,535.3
2023-02-22T06:20:49.381Z,535.3
2023-02-22T06:21:51.307Z,535.7
2023-02-22T06:22:53.201Z,535.8
2023-02-22T06:23:55.011Z,536.1
2023-02-22T06:24:56.869Z,536
2023-02-22T06:25:58.717Z,536
2023-02-22T06:27:00.886Z,536.1
2023-02-22T06:28:02.651Z,536.1
2023-02-22T06:29:04.458Z,536.4
2023-02-22T06:30:06.861Z,536.3
2023-02-22T06:31:09.012Z,536.2
2023-02-22T06:32:10.946Z,536
2023-02-22T06:33:12.785Z,536.2
2023-02-22T06:34:14.929Z,535.7
2023-02-22T06:35:16.762Z,536
2023-02-22T06:36:18.635Z,535.7
2023-02-22T06:37:20.604Z,535.7
2023-02-22T06:38:22.568Z,535.6
2023-02-22T06:39:24.499Z,535.2
2023-02-22T06:40:26.371Z,535.4
2023-02-22T06:41:28.193Z,535.4
2023-02-22T06:42:30.274Z,535.6
2023-02-22T06:43:32.112Z,535.4
2023-02-22T06:44:33.942Z,535.7
2023-02-22T06:45:35.979Z,536
2023-02-22T06:46:37.734Z,536
2023-02-22T06:47:39.496Z,535.9
2023-02-22T06:48:41.474Z,535.8
2023-02-22T06:49:43.321Z,535.8
2023-02-22T06:50:45.025Z,535.6
2023-02-22T06:51:46.912Z,535.3
2023-02-22T06:52:48.860Z,535
2023-02-22T06:53:50.761Z,535.2
2023-02-22T06:54:52.722Z,534.6
2023-02-22T06:55:54.757Z,535.4
2023-02-22T06:56:56.794Z,535.2
2023-02-22T06:57:58.649Z,535.1
2023-02-22T06:59:03.454Z,535.2
2023-02-22T07:00:05.512Z,535.5
2023-02-22T07:01:08.146Z,535.4
2023-02-22T07:02:10.024Z,535.4
2023-02-22T07:03:11.965Z,535.4
2023-02-22T07:04:13.781Z,534.9
2023-02-22T07:05:15.773Z,535.1
2023-02-22T07:06:17.537Z,534.9
2023-02-22T07:07:19.300Z,534.8
2023-02-22T07:08:21.228Z,534.6
2023-02-22T07:09:23.095Z,534.8
2023-02-22T07:10:25.030Z,534.6
2023-02-22T07:11:27.466Z,534.8
2023-02-22T07:12:29.858Z,534.3
2023-02-22T07:13:31.707Z,534.9
2023-02-22T07:14:33.572Z,534.9
2023-02-22T07:15:35.399Z,535
2023-02-22T07:16:38.285Z,535.3
2023-02-22T07:17:40.135Z,535.2
2023-02-22T07:18:42.101Z,535
2023-02-22T07:19:44.033Z,535
2023-02-22T07:20:45.897Z,534.8
2023-02-22T07:21:47.639Z,534.8
2023-02-22T07:22:49.800Z,534.3
2023-02-22T07:23:51.762Z,534.3
2023-02-22T07:24:53.823Z,534.6
2023-02-22T07:25:55.745Z,533.9
2023-02-22T07:26:57.606Z,534
2023-02-22T07:27:59.313Z,534
2023-02-22T07:29:01.136Z,533.4
2023-02-22T07:30:03.154Z,533.6
2023-02-22T07:31:05.018Z,533.7
2023-02-22T07:32:06.972Z,533.9
2023-02-22T07:33:08.970Z,533.8
2023-02-22T07:34:10.685Z,534.1
2023-02-22T07:35:12.707Z,534
2023-02-22T07:36:14.412Z,534.2
2023-02-22T07:37:16.087Z,534.4
2023-02-22T07:38:17.797Z,534.4
2023-02-22T07:39:19.812Z,534.4
2023-02-22T07:40:21.591Z,534.6
2023-02-22T07:41:23.323Z,534.6
2023-02-22T07:42:25.144Z,535.1
2023-02-22T07:43:26.971Z,534.8
2023-02-22T07:44:28.743Z,534.9
2023-02-22T07:45:30.814Z,534.6
2023-02-22T07:46:32.740Z,534.8
2023-02-22T07:47:34.622Z,534.7
2023-02-22T07:48:36.557Z,534.5
2023-02-22T07:49:38.998Z,534.6
2023-02-22T07:50:40.924Z,534.9
2023-02-22T07:51:42.915Z,535.2
2023-02-22T07:52:44.909Z,535.3
2023-02-22T07:53:47.331Z,535.5
2023-02-22T07:54:48.971Z,535.5
2023-02-22T07:55:50.748Z,535.6
2023-02-22T07:56:53.008Z,535.6
2023-02-22T07:57:54.848Z,535.5
2023-02-22T07:58:56.809Z,535.6
2023-02-22T07:59:58.552Z,535.8
2023-02-22T08:01:00.179Z,535.2
2023-02-22T08:02:01.910Z,535.6
2023-02-22T08:03:03.588Z,535.6
2023-02-22T08:04:05.243Z,535.4
2023-02-22T08:05:06.891Z,535.7
2023-02-22T08:06:08.567Z,535.9
2023-02-22T08:07:10.317Z,536
2023-02-22T08:08:11.982Z,535.8
2023-02-22T08:09:13.869Z,536.1
2023-02-22T08:10:15.656Z,536.1
2023-02-22T08:11:19.330Z,536.2
2023-02-22T08:12:21.249Z,536.2
2023-02-22T08:13:23.729Z,536.2
2023-02-22T08:14:25.898Z,536.1
2023-02-22T08:15:27.585Z,535.8
2023-02-22T08:16:29.342Z,535.9
2023-02-22T08:17:31.172Z,536
2023-02-22T08:18:33.017Z,536.1
2023-02-22T08:19:35.234Z,536.1
2023-02-22T08:20:36.940Z,536.6
2023-02-22T08:21:38.729Z,536.6
2023-02-22T08:22:40.862Z,536.2
2023-02-22T08:23:42.631Z,536.4
2023-02-22T08:24:44.474Z,536.3
2023-02-22T08:25:46.336Z,536.1
2023-02-22T08:26:48.315Z,536
2023-02-22T08:27:50.184Z,536.4
2023-02-22T08:28:51.933Z,536.3
2023-02-22T08:29:53.955Z,536.5
2023-02-22T08:30:55.828Z,536.5
2023-02-22T08:31:58.606Z,536.8
2023-02-22T08:33:01.209Z,536.8
2023-02-22T08:34:02.919Z,537.2
2023-02-22T08:35:04.544Z,537.1
2023-02-22T08:36:06.279Z,537.1
2023-02-22T08:37:11.207Z,537.1
2023-02-22T08:38:13.517Z,537.1
2023-02-22T08:39:15.904Z,537.2
2023-02-22T08:40:17.738Z,537.3
2023-02-22T08:41:20.222Z,537.3
2023-02-22T08:42:21.966Z,537.6
2023-02-22T08:43:24.204Z,537.5
2023-02-22T08:44:25.981Z,537.4
2023-02-22T08:45:27.697Z,537.6
2023-02-22T08:46:29.389Z,537.5
2023-02-22T08:47:31.394Z,537.7
2023-02-22T08:48:33.381Z,537.5
2023-02-22T08:49:35.218Z,537.3
2023-02-22T08:50:36.939Z,537.4
2023-02-22T08:51:38.646Z,537.6
2023-02-22T08:52:40.751Z,537.5
2023-02-22T08:53:42.411Z,537.6
2023-02-22T08:54:44.269Z,537.8
2023-02-22T08:55:46.126Z,537.7
2023-02-22T08:56:47.826Z,537.9
2023-02-22T08:57:49.548Z,537.8
2023-02-22T08:58:51.252Z,537.9
2023-02-22T08:59:52.908Z,538.6
2023-02-22T09:00:55.115Z,538.4
2023-02-22T09:01:56.956Z,538.5
2023-02-22T09:02:58.680Z,538.6
2023-02-22T09:04:00.804Z,538.4
2023-02-22T09:05:02.607Z,538.6
2023-02-22T09:06:04.645Z,538.7
2023-02-22T09:07:06.353Z,538.9
2023-02-22T09:08:08.038Z,539
2023-02-22T09:09:10.130Z,538.9
2023-02-22T09:10:12.290Z,538.9
2023-02-22T09:11:15.067Z,538.5
2023-02-22T09:12:17.413Z,538.8
2023-02-22T09:13:19.306Z,538.9
2023-02-22T09:14:20.964Z,538.7
2023-02-22T09:15:23.208Z,539
2023-02-22T09:16:25.038Z,539.3
2023-02-22T09:17:26.761Z,539.2
2023-02-22T09:18:44.905Z,539.2
2023-02-22T09:19:46.600Z,539
2023-02-22T09:20:48.282Z,538.9
2023-02-22T09:21:49.977Z,539.4
2023-02-22T09:22:51.710Z,539.2
2023-02-22T09:23:53.832Z,539.1
2023-02-22T09:25:17.598Z,539.3
2023-02-22T09:26:19.885Z,539.3
2023-02-22T09:27:21.596Z,539.5
2023-02-22T09:28:23.345Z,539.9
2023-02-22T09:29:25.044Z,540
2023-02-22T09:30:27.050Z,540
2023-02-22T09:31:29.440Z,540
2023-02-22T09:32:32.240Z,540.3
2023-02-22T09:33:34.188Z,540.5
2023-02-22T09:34:35.970Z,540.3
2023-02-22T09:35:37.686Z,540.3
2023-02-22T09:36:39.359Z,540.4
2023-02-22T09:37:41.032Z,540.4
2023-02-22T09:38:42.731Z,540.6
2023-02-22T09:39:44.591Z,540.6
2023-02-22T09:40:46.475Z,540.8
2023-02-22T09:41:48.180Z,540.4
2023-02-22T09:42:49.902Z,540.2
2023-02-22T09:43:51.833Z,540.7
2023-02-22T09:44:53.531Z,540.8
2023-02-22T09:45:55.637Z,541
2023-02-22T09:46:57.607Z,540.8
2023-02-22T09:48:23.058Z,540.8
2023-02-22T09:49:24.826Z,541.3
2023-02-22T09:50:26.562Z,541.4
2023-02-22T09:51:28.853Z,540.8
2023-02-22T09:52:30.729Z,541.1
2023-02-22T09:53:32.499Z,541
2023-02-22T09:54:34.173Z,540.9
2023-02-22T09:55:35.978Z,540.9
2023-02-22T09:56:37.645Z,541.2
2023-02-22T09:57:39.477Z,541.3
2023-02-22T09:58:42.562Z,542
2023-02-22T09:59:44.877Z,542.2
2023-02-22T10:00:46.572Z,542.3
2023-02-22T10:01:48.256Z,541.7
2023-02-22T10:02:49.929Z,542.3
2023-02-22T10:03:52.083Z,542.2
2023-02-22T10:04:53.987Z,542.7
2023-02-22T10:05:55.807Z,542.6
2023-02-22T10:06:57.572Z,543
2023-02-22T10:07:59.452Z,542.9
2023-02-22T10:09:01.171Z,543.2
2023-02-22T10:10:03.453Z,543.4
2023-02-22T10:11:05.186Z,543.5
2023-02-22T10:12:06.942Z,543.3
2023-02-22T10:13:09.159Z,543.8
2023-02-22T10:14:11.054Z,543.8
2023-02-22T10:15:12.988Z,544
2023-02-22T10:16:15.324Z,544.3
2023-02-22T10:17:17.240Z,544.4
2023-02-22T10:18:18.873Z,544.3
2023-02-22T10:19:21.303Z,544.8
2023-02-22T10:20:23.022Z,544.7
2023-02-22T10:21:24.698Z,544.8
2023-02-22T10:22:26.530Z,544.7
2023-02-22T10:23:28.373Z,544.7
2023-02-22T10:24:30.292Z,545.2
2023-02-22T10:25:32.185Z,545.2
2023-02-22T10:26:34.047Z,545.7
2023-02-22T10:27:36.425Z,545.5
2023-02-22T10:28:38.275Z,545.8
2023-02-22T10:29:40.216Z,545.9
2023-02-22T10:30:42.468Z,546.1
2023-02-22T10:31:44.612Z,546.1
2023-02-22T10:32:46.274Z,546.4
2023-02-22T10:33:47.972Z,546.8
2023-02-22T10:34:50.799Z,547
2023-02-22T10:35:52.461Z,547.1
2023-02-22T10:36:54.155Z,547
2023-02-22T10:37:55.864Z,547.6
2023-02-22T10:38:57.575Z,547.6
2023-02-22T10:39:59.264Z,547.8
2023-02-22T10:41:01.278Z,548
2023-02-22T10:42:03.025Z,548.1
2023-02-22T10:43:04.785Z,548.4
2023-02-22T10:44:06.435Z,548.5
2023-02-22T10:45:08.118Z,548.4
2023-02-22T10:46:10.760Z,548.7
2023-02-22T10:47:12.463Z,549
2023-02-22T10:48:14.382Z,549.3
2023-02-22T10:49:16.685Z,549.1
2023-02-22T10:50:18.941Z,549.3
2023-02-22T10:51:20.806Z,549.8
2023-02-22T10:52:22.650Z,549.8
2023-02-22T10:53:27.158Z,550.2
2023-02-22T10:54:29.020Z,550
2023-02-22T10:55:30.858Z,550
2023-02-22T10:56:32.669Z,550.3
2023-02-22T10:57:34.390Z,550.7
2023-02-22T10:58:36.829Z,550.3
2023-02-22T10:59:38.766Z,550.9
2023-02-22T11:00:40.732Z,550.8
2023-02-22T11:01:43.049Z,550.9
2023-02-22T11:02:44.931Z,550.7
2023-02-22T11:03:46.743Z,550.8
2023-02-22T11:04:49.167Z,550.8
2023-02-22T11:05:51.007Z,551.3
2023-02-22T11:06:52.859Z,550.9
2023-02-22T11:07:54.691Z,551.4
2023-02-22T11:08:56.552Z,551.2
2023-02-22T11:09:58.500Z,551.1
2023-02-22T11:11:00.369Z,551
2023-02-22T11:12:02.199Z,551.5
2023-02-22T11:13:04.464Z,551.7
2023-02-22T11:14:06.183Z,551.8
2023-02-22T11:15:08.058Z,551.8
2023-02-22T11:16:10.025Z,551.8
2023-02-22T11:17:12.328Z,551.8
2023-02-22T11:18:14.491Z,551.6
2023-02-22T11:19:16.273Z,552.1
2023-02-22T11:20:18.121Z,552.1
2023-02-22T11:21:20.280Z,552.4
2023-02-22T11:22:22.023Z,552.4
2023-02-22T11:23:23.885Z,552.7
2023-02-22T11:24:25.597Z,552.4
2023-02-22T11:25:27.876Z,552.7
2023-02-22T11:26:29.559Z,552.7
2023-02-22T11:27:32.393Z,552.6
2023-02-22T11:28:34.071Z,552.8
2023-02-22T11:29:36.217Z,552.8
2023-02-22T11:30:39.155Z,553
2023-02-22T11:31:41.679Z,552.9
2023-02-22T11:32:43.834Z,553.3
2023-02-22T11:33:45.666Z,553
2023-02-22T11:35:09.200Z,553.4
2023-02-22T11:36:10.936Z,553.3
2023-02-22T11:37:12.666Z,553.6
2023-02-22T11:38:14.464Z,553.5
2023-02-22T11:39:16.825Z,554.1
2023-02-22T11:40:18.661Z,554.2
2023-02-22T11:41:21.439Z,554.1
2023-02-22T11:42:23.250Z,554.4
2023-02-22T11:43:25.060Z,554.4
2023-02-22T11:44:26.707Z,554.2
2023-02-22T11:45:28.434Z,554.7
2023-02-22T11:46:30.757Z,554.3
2023-02-22T11:47:32.498Z,554.4
2023-02-22T11:48:34.537Z,554.3
2023-02-22T11:49:36.345Z,554.5
2023-02-22T11:50:38.285Z,554.7
2023-02-22T11:51:40.021Z,554.7
2023-02-22T11:52:41.889Z,554.7
2023-02-22T11:53:43.633Z,554.9
2023-02-22T11:54:45.397Z,554.8
2023-02-22T11:55:47.248Z,555.2
2023-02-22T11:56:49.083Z,555.3
2023-02-22T11:57:50.881Z,555.4
2023-02-22T11:58:52.615Z,555.5
2023-02-22T11:59:54.370Z,555.7
2023-02-22T12:00:56.638Z,556.3
2023-02-22T12:01:58.436Z,556.4
2023-02-22T12:03:00.573Z,556.5
2023-02-22T12:04:03.108Z,556.2
2023-02-22T12:05:05.322Z,556.3
2023-02-22T12:06:07.187Z,556.3
2023-02-22T12:07:08.951Z,556.4
2023-02-22T12:08:20.721Z,556.4
2023-02-22T12:09:22.392Z,556.7
2023-02-22T12:10:24.052Z,556.2
2023-02-22T12:11:25.696Z,556.1
2023-02-22T12:12:27.812Z,556.7
2023-02-22T12:13:29.536Z,557.1
2023-02-22T12:14:31.801Z,556.8
2023-02-22T12:15:33.804Z,557.5
2023-02-22T12:16:35.696Z,557
2023-02-22T12:17:39.086Z,557.1
2023-02-22T12:18:42.060Z,557
2023-02-22T12:19:44.146Z,556.9
2023-02-22T12:20:46.071Z,557.3
2023-02-22T12:21:47.816Z,557.1
2023-02-22T12:22:50.898Z,557.5
2023-02-22T12:23:52.687Z,557.7
2023-02-22T12:25:10.651Z,557.6
2023-02-22T12:26:12.426Z,557.7
2023-02-22T12:27:14.416Z,558.1
2023-02-22T12:28:26.036Z,557.8
2023-02-22T12:29:27.997Z,558.5
2023-02-22T12:30:30.006Z,558
2023-02-22T12:31:32.224Z,558.6
2023-02-22T12:32:34.441Z,558.4
2023-02-22T12:33:36.915Z,558.1
2023-02-22T12:34:39.236Z,558.4
2023-02-22T12:35:41.514Z,558.7
2023-02-22T12:36:43.909Z,558.8
2023-02-22T12:37:45.714Z,558.7
2023-02-22T12:38:48.388Z,558.9
2023-02-22T12:39:54.677Z,559
2023-02-22T12:40:56.777Z,559.4
2023-02-22T12:41:58.544Z,559.3
2023-02-22T12:43:00.290Z,559.5
2023-02-22T12:44:02.110Z,559.3
2023-02-22T12:45:11.791Z,559.5
2023-02-22T12:46:14.121Z,559.4
2023-02-22T12:47:18.427Z,559.4
2023-02-22T12:48:20.385Z,559.7
2023-02-22T12:49:22.729Z,559.7
2023-02-22T12:50:24.601Z,559.6
2023-02-22T12:51:27.078Z,559.8
2023-02-22T12:52:28.896Z,560.1
2023-02-22T12:53:30.737Z,560.2
2023-02-22T12:54:32.561Z,560.2
2023-02-22T12:55:34.443Z,559.9
2023-02-22T12:56:36.466Z,560.5
2023-02-22T12:57:38.448Z,560.8
2023-02-22T12:58:40.326Z,559.8
2023-02-22T12:59:42.111Z,560.1
2023-02-22T13:00:43.980Z,560.2
2023-02-22T13:01:46.172Z,560.6
2023-02-22T13:02:48.108Z,560.3
2023-02-22T13:03:49.916Z,560.8
2023-02-22T13:04:51.860Z,560.7
2023-02-22T13:05:53.671Z,560.2
2023-02-22T13:06:55.621Z,560.7
2023-02-22T13:07:57.435Z,560.9
2023-02-22T13:08:59.321Z,560.8
2023-02-22T13:10:01.413Z,560.8
2023-02-22T13:11:03.407Z,560.8
2023-02-22T13:12:05.170Z,560.6
2023-02-22T13:13:06.988Z,560.9
2023-02-22T13:14:08.864Z,560.5
2023-02-22T13:15:10.781Z,560.8
2023-02-22T13:16:13.035Z,560.6
2023-02-22T13:17:15.619Z,560.6
2023-02-22T13:18:17.637Z,560.8
2023-02-22T13:19:19.551Z,561.2
2023-02-22T13:20:21.456Z,561.1
2023-02-22T13:21:23.372Z,561.5
2023-02-22T13:22:26.639Z,561.1
2023-02-22T13:23:28.704Z,561.2
2023-02-22T13:24:30.453Z,561.6
2023-02-22T13:25:32.392Z,561.3